sensor_id;sensor_type;location;lat;lon;timestamp;P1;durP1;ratioP1;P2;durP2;ratioP2
20727;SDS011;10525;50.154;8.198;2022-08-04T00:02:34;2.58;;;2.47;;
20727;SDS011;10525;50.154;8.198;2022-08-04T00:05:11;2.67;;;2.47;;
20727;SDS011;10525;50.154;8.198;2022-08-04T00:07:51;3.03;;;2.83;;
20727;SDS011;10525;50.154;8.198;2022-08-04T00:10:26;2.42;;;2.33;;
20727;SDS011;10525;50.154;8.198;2022-08-04T00:12:54;2.65;;;2.65;;
20727;SDS011;10525;50.154;8.198;2022-08-04T00:15:23;2.50;;;2.35;;
20727;SDS011;10525;50.154;8.198;2022-08-04T00:17:53;2.75;;;2.65;;
20727;SDS011;10525;50.154;8.198;2022-08-04T00:20:28;2.60;;;2.40;;
20727;SDS011;10525;50.154;8.198;2022-08-04T00:22:55;2.95;;;2.85;;
20727;SDS011;10525;50.154;8.198;2022-08-04T00:25:23;2.85;;;2.75;;
20727;SDS011;10525;50.154;8.198;2022-08-04T00:27:50;3.08;;;2.92;;
20727;SDS011;10525;50.154;8.198;2022-08-04T00:30:17;3.78;;;2.95;;
20727;SDS011;10525;50.154;8.198;2022-08-04T00:32:43;2.85;;;2.83;;
20727;SDS011;10525;50.154;8.198;2022-08-04T00:35:12;2.88;;;2.78;;
20727;SDS011;10525;50.154;8.198;2022-08-04T00:37:40;2.95;;;2.85;;
20727;SDS011;10525;50.154;8.198;2022-08-04T00:40:12;2.97;;;2.88;;
20727;SDS011;10525;50.154;8.198;2022-08-04T00:42:48;2.80;;;2.70;;
20727;SDS011;10525;50.154;8.198;2022-08-04T00:45:28;2.22;;;2.22;;
20727;SDS011;10525;50.154;8.198;2022-08-04T00:48:21;2.80;;;2.70;;
20727;SDS011;10525;50.154;8.198;2022-08-04T00:50:58;2.67;;;2.67;;
20727;SDS011;10525;50.154;8.198;2022-08-04T00:53:39;3.00;;;2.90;;
20727;SDS011;10525;50.154;8.198;2022-08-04T00:56:27;3.20;;;2.80;;
20727;SDS011;10525;50.154;8.198;2022-08-04T00:59:17;3.28;;;3.05;;
20727;SDS011;10525;50.154;8.198;2022-08-04T01:01:58;6.55;;;3.67;;
20727;SDS011;10525;50.154;8.198;2022-08-04T01:04:28;3.10;;;3.00;;
20727;SDS011;10525;50.154;8.198;2022-08-04T01:07:14;3.80;;;3.47;;
20727;SDS011;10525;50.154;8.198;2022-08-04T01:09:55;4.90;;;3.03;;
20727;SDS011;10525;50.154;8.198;2022-08-04T01:15:20;4.10;;;3.80;;
20727;SDS011;10525;50.154;8.198;2022-08-04T01:17:58;3.35;;;3.10;;
20727;SDS011;10525;50.154;8.198;2022-08-04T01:20:31;3.00;;;2.90;;
20727;SDS011;10525;50.154;8.198;2022-08-04T01:23:06;3.15;;;3.05;;
20727;SDS011;10525;50.154;8.198;2022-08-04T01:29:04;3.40;;;3.30;;
20727;SDS011;10525;50.154;8.198;2022-08-04T01:31:34;3.10;;;3.00;;
20727;SDS011;10525;50.154;8.198;2022-08-04T01:34:11;3.22;;;3.13;;
20727;SDS011;10525;50.154;8.198;2022-08-04T01:36:40;3.28;;;3.00;;
20727;SDS011;10525;50.154;8.198;2022-08-04T01:39:11;3.30;;;3.20;;
20727;SDS011;10525;50.154;8.198;2022-08-04T01:41:53;3.53;;;3.22;;
20727;SDS011;10525;50.154;8.198;2022-08-04T01:44:23;3.60;;;3.40;;
20727;SDS011;10525;50.154;8.198;2022-08-04T01:46:51;3.70;;;2.92;;
20727;SDS011;10525;50.154;8.198;2022-08-04T01:49:19;3.17;;;3.08;;
20727;SDS011;10525;50.154;8.198;2022-08-04T01:51:48;3.10;;;3.00;;
20727;SDS011;10525;50.154;8.198;2022-08-04T01:54:17;5.32;;;3.08;;
20727;SDS011;10525;50.154;8.198;2022-08-04T01:56:44;3.05;;;2.95;;
20727;SDS011;10525;50.154;8.198;2022-08-04T01:59:14;4.50;;;3.25;;
20727;SDS011;10525;50.154;8.198;2022-08-04T02:01:45;3.00;;;2.85;;
20727;SDS011;10525;50.154;8.198;2022-08-04T02:04:13;2.63;;;2.63;;
20727;SDS011;10525;50.154;8.198;2022-08-04T02:06:43;2.97;;;2.78;;
20727;SDS011;10525;50.154;8.198;2022-08-04T02:09:16;3.55;;;3.25;;
20727;SDS011;10525;50.154;8.198;2022-08-04T02:11:48;3.40;;;3.10;;
20727;SDS011;10525;50.154;8.198;2022-08-04T02:14:27;3.10;;;2.90;;
20727;SDS011;10525;50.154;8.198;2022-08-04T02:17:11;3.22;;;3.05;;
20727;SDS011;10525;50.154;8.198;2022-08-04T02:22:33;3.38;;;3.25;;
20727;SDS011;10525;50.154;8.198;2022-08-04T02:25:05;4.63;;;3.10;;
20727;SDS011;10525;50.154;8.198;2022-08-04T02:27:38;4.18;;;3.50;;
20727;SDS011;10525;50.154;8.198;2022-08-04T02:30:15;3.20;;;3.10;;
20727;SDS011;10525;50.154;8.198;2022-08-04T02:32:45;3.60;;;3.40;;
20727;SDS011;10525;50.154;8.198;2022-08-04T02:35:14;4.18;;;3.97;;
20727;SDS011;10525;50.154;8.198;2022-08-04T02:37:47;3.63;;;3.30;;
20727;SDS011;10525;50.154;8.198;2022-08-04T02:40:31;3.08;;;3.00;;
20727;SDS011;10525;50.154;8.198;2022-08-04T02:42:58;3.38;;;3.15;;
20727;SDS011;10525;50.154;8.198;2022-08-04T02:45:28;4.43;;;3.53;;
20727;SDS011;10525;50.154;8.198;2022-08-04T02:48:02;6.20;;;3.40;;
20727;SDS011;10525;50.154;8.198;2022-08-04T02:50:31;3.92;;;3.42;;
20727;SDS011;10525;50.154;8.198;2022-08-04T02:53:01;3.20;;;3.10;;
20727;SDS011;10525;50.154;8.198;2022-08-04T02:55:29;3.22;;;3.03;;
20727;SDS011;10525;50.154;8.198;2022-08-04T02:57:58;3.55;;;3.45;;
20727;SDS011;10525;50.154;8.198;2022-08-04T03:00:27;4.38;;;3.20;;
20727;SDS011;10525;50.154;8.198;2022-08-04T03:02:58;4.00;;;3.80;;
20727;SDS011;10525;50.154;8.198;2022-08-04T03:05:46;5.60;;;3.15;;
20727;SDS011;10525;50.154;8.198;2022-08-04T03:08:33;3.38;;;3.05;;
20727;SDS011;10525;50.154;8.198;2022-08-04T03:11:36;5.13;;;2.90;;
20727;SDS011;10525;50.154;8.198;2022-08-04T03:14:36;5.07;;;3.33;;
20727;SDS011;10525;50.154;8.198;2022-08-04T03:17:32;2.90;;;2.90;;
20727;SDS011;10525;50.154;8.198;2022-08-04T03:20:32;3.40;;;3.20;;
20727;SDS011;10525;50.154;8.198;2022-08-04T03:23:28;3.70;;;3.40;;
20727;SDS011;10525;50.154;8.198;2022-08-04T03:26:30;3.30;;;3.20;;
20727;SDS011;10525;50.154;8.198;2022-08-04T03:29:41;3.50;;;3.40;;
20727;SDS011;10525;50.154;8.198;2022-08-04T03:32:42;4.15;;;3.25;;
20727;SDS011;10525;50.154;8.198;2022-08-04T03:45:00;3.00;;;2.90;;
20727;SDS011;10525;50.154;8.198;2022-08-04T03:48:19;3.20;;;3.10;;
20727;SDS011;10525;50.154;8.198;2022-08-04T03:51:17;3.28;;;3.17;;
20727;SDS011;10525;50.154;8.198;2022-08-04T03:54:26;3.47;;;3.28;;
20727;SDS011;10525;50.154;8.198;2022-08-04T03:57:18;3.17;;;3.08;;
20727;SDS011;10525;50.154;8.198;2022-08-04T04:00:05;3.50;;;3.30;;
20727;SDS011;10525;50.154;8.198;2022-08-04T04:02:41;3.55;;;3.38;;
20727;SDS011;10525;50.154;8.198;2022-08-04T04:05:26;3.17;;;3.00;;
20727;SDS011;10525;50.154;8.198;2022-08-04T04:08:24;4.85;;;4.13;;
20727;SDS011;10525;50.154;8.198;2022-08-04T04:14:06;3.58;;;3.47;;
20727;SDS011;10525;50.154;8.198;2022-08-04T04:16:48;3.40;;;3.30;;
20727;SDS011;10525;50.154;8.198;2022-08-04T04:19:33;4.75;;;4.45;;
20727;SDS011;10525;50.154;8.198;2022-08-04T04:22:22;3.63;;;3.00;;
20727;SDS011;10525;50.154;8.198;2022-08-04T04:25:16;3.40;;;3.30;;
20727;SDS011;10525;50.154;8.198;2022-08-04T04:27:58;3.83;;;3.58;;
20727;SDS011;10525;50.154;8.198;2022-08-04T04:30:40;5.35;;;3.72;;
20727;SDS011;10525;50.154;8.198;2022-08-04T04:33:27;3.55;;;3.38;;
20727;SDS011;10525;50.154;8.198;2022-08-04T04:36:07;3.45;;;3.20;;
20727;SDS011;10525;50.154;8.198;2022-08-04T04:38:43;3.30;;;3.20;;
20727;SDS011;10525;50.154;8.198;2022-08-04T04:41:30;3.25;;;3.08;;
20727;SDS011;10525;50.154;8.198;2022-08-04T04:44:22;3.40;;;3.30;;
20727;SDS011;10525;50.154;8.198;2022-08-04T04:47:08;3.35;;;3.25;;
20727;SDS011;10525;50.154;8.198;2022-08-04T04:49:44;3.47;;;3.35;;
20727;SDS011;10525;50.154;8.198;2022-08-04T04:52:17;3.38;;;3.15;;
20727;SDS011;10525;50.154;8.198;2022-08-04T04:54:52;3.67;;;3.38;;
20727;SDS011;10525;50.154;8.198;2022-08-04T04:57:24;3.70;;;3.20;;
20727;SDS011;10525;50.154;8.198;2022-08-04T04:59:57;3.60;;;3.40;;
20727;SDS011;10525;50.154;8.198;2022-08-04T05:02:35;6.07;;;3.03;;
20727;SDS011;10525;50.154;8.198;2022-08-04T05:08:25;3.45;;;3.05;;
20727;SDS011;10525;50.154;8.198;2022-08-04T05:11:39;3.08;;;2.97;;
20727;SDS011;10525;50.154;8.198;2022-08-04T05:14:29;3.30;;;3.20;;
20727;SDS011;10525;50.154;8.198;2022-08-04T05:17:02;4.68;;;4.00;;
20727;SDS011;10525;50.154;8.198;2022-08-04T05:19:39;4.15;;;3.30;;
20727;SDS011;10525;50.154;8.198;2022-08-04T05:22:15;4.68;;;3.30;;
20727;SDS011;10525;50.154;8.198;2022-08-04T05:24:46;3.25;;;3.15;;
20727;SDS011;10525;50.154;8.198;2022-08-04T05:27:16;4.05;;;3.25;;
20727;SDS011;10525;50.154;8.198;2022-08-04T05:29:49;3.47;;;3.35;;
20727;SDS011;10525;50.154;8.198;2022-08-04T05:32:22;3.25;;;3.15;;
20727;SDS011;10525;50.154;8.198;2022-08-04T05:34:54;2.95;;;2.85;;
20727;SDS011;10525;50.154;8.198;2022-08-04T05:37:28;2.70;;;2.60;;
20727;SDS011;10525;50.154;8.198;2022-08-04T05:39:57;3.38;;;2.80;;
20727;SDS011;10525;50.154;8.198;2022-08-04T05:42:27;2.78;;;2.70;;
20727;SDS011;10525;50.154;8.198;2022-08-04T05:44:55;2.90;;;2.70;;
20727;SDS011;10525;50.154;8.198;2022-08-04T05:47:24;3.22;;;3.13;;
20727;SDS011;10525;50.154;8.198;2022-08-04T05:49:54;3.75;;;3.42;;
20727;SDS011;10525;50.154;8.198;2022-08-04T05:52:22;3.30;;;3.00;;
20727;SDS011;10525;50.154;8.198;2022-08-04T05:54:50;3.03;;;2.83;;
20727;SDS011;10525;50.154;8.198;2022-08-04T05:57:17;3.20;;;2.85;;
20727;SDS011;10525;50.154;8.198;2022-08-04T05:59:45;2.88;;;2.78;;
20727;SDS011;10525;50.154;8.198;2022-08-04T06:02:14;3.53;;;3.22;;
20727;SDS011;10525;50.154;8.198;2022-08-04T06:04:45;3.20;;;3.00;;
20727;SDS011;10525;50.154;8.198;2022-08-04T06:07:15;3.10;;;2.90;;
20727;SDS011;10525;50.154;8.198;2022-08-04T06:09:42;3.08;;;2.97;;
20727;SDS011;10525;50.154;8.198;2022-08-04T06:12:10;3.03;;;2.92;;
20727;SDS011;10525;50.154;8.198;2022-08-04T06:14:40;3.20;;;3.10;;
20727;SDS011;10525;50.154;8.198;2022-08-04T06:17:09;3.53;;;2.92;;
20727;SDS011;10525;50.154;8.198;2022-08-04T06:19:39;3.90;;;2.70;;
20727;SDS011;10525;50.154;8.198;2022-08-04T06:22:08;3.20;;;3.10;;
20727;SDS011;10525;50.154;8.198;2022-08-04T06:24:37;2.65;;;2.55;;
20727;SDS011;10525;50.154;8.198;2022-08-04T06:27:06;3.80;;;3.05;;
20727;SDS011;10525;50.154;8.198;2022-08-04T06:29:33;2.90;;;2.80;;
20727;SDS011;10525;50.154;8.198;2022-08-04T06:32:03;3.05;;;2.90;;
20727;SDS011;10525;50.154;8.198;2022-08-04T06:34:49;3.08;;;2.90;;
20727;SDS011;10525;50.154;8.198;2022-08-04T06:37:19;2.97;;;2.80;;
20727;SDS011;10525;50.154;8.198;2022-08-04T06:39:46;3.03;;;2.92;;
20727;SDS011;10525;50.154;8.198;2022-08-04T06:42:14;2.80;;;2.60;;
20727;SDS011;10525;50.154;8.198;2022-08-04T06:44:43;2.53;;;2.42;;
20727;SDS011;10525;50.154;8.198;2022-08-04T06:47:11;2.55;;;2.40;;
20727;SDS011;10525;50.154;8.198;2022-08-04T06:49:38;3.25;;;3.03;;
20727;SDS011;10525;50.154;8.198;2022-08-04T06:52:06;5.95;;;3.90;;
20727;SDS011;10525;50.154;8.198;2022-08-04T06:54:35;2.80;;;2.70;;
20727;SDS011;10525;50.154;8.198;2022-08-04T06:57:01;4.00;;;2.55;;
20727;SDS011;10525;50.154;8.198;2022-08-04T06:59:29;2.45;;;2.45;;
20727;SDS011;10525;50.154;8.198;2022-08-04T07:01:56;10.10;;;2.63;;
20727;SDS011;10525;50.154;8.198;2022-08-04T07:04:24;2.40;;;2.30;;
20727;SDS011;10525;50.154;8.198;2022-08-04T07:06:51;2.15;;;1.95;;
20727;SDS011;10525;50.154;8.198;2022-08-04T07:09:18;2.80;;;2.70;;
20727;SDS011;10525;50.154;8.198;2022-08-04T07:11:47;4.60;;;2.40;;
20727;SDS011;10525;50.154;8.198;2022-08-04T07:14:14;4.43;;;2.67;;
20727;SDS011;10525;50.154;8.198;2022-08-04T07:16:43;3.42;;;2.28;;
20727;SDS011;10525;50.154;8.198;2022-08-04T07:19:10;2.67;;;2.42;;
20727;SDS011;10525;50.154;8.198;2022-08-04T07:21:37;2.40;;;2.00;;
20727;SDS011;10525;50.154;8.198;2022-08-04T07:24:05;2.00;;;2.00;;
20727;SDS011;10525;50.154;8.198;2022-08-04T07:26:31;2.25;;;2.03;;
20727;SDS011;10525;50.154;8.198;2022-08-04T07:29:00;2.03;;;2.00;;
20727;SDS011;10525;50.154;8.198;2022-08-04T07:31:27;2.28;;;2.13;;
20727;SDS011;10525;50.154;8.198;2022-08-04T07:33:55;2.10;;;2.10;;
20727;SDS011;10525;50.154;8.198;2022-08-04T07:36:22;2.10;;;2.10;;
20727;SDS011;10525;50.154;8.198;2022-08-04T07:38:49;2.40;;;2.20;;
20727;SDS011;10525;50.154;8.198;2022-08-04T07:41:18;7.82;;;2.10;;
20727;SDS011;10525;50.154;8.198;2022-08-04T07:43:46;2.10;;;1.92;;
20727;SDS011;10525;50.154;8.198;2022-08-04T07:46:15;2.10;;;2.05;;
20727;SDS011;10525;50.154;8.198;2022-08-04T07:48:41;2.20;;;2.13;;
20727;SDS011;10525;50.154;8.198;2022-08-04T07:51:08;2.53;;;2.10;;
20727;SDS011;10525;50.154;8.198;2022-08-04T07:53:36;3.53;;;2.20;;
20727;SDS011;10525;50.154;8.198;2022-08-04T07:56:03;2.20;;;2.10;;
20727;SDS011;10525;50.154;8.198;2022-08-04T07:58:31;2.55;;;2.42;;
20727;SDS011;10525;50.154;8.198;2022-08-04T08:00:57;2.63;;;2.55;;
20727;SDS011;10525;50.154;8.198;2022-08-04T08:03:25;2.83;;;2.47;;
20727;SDS011;10525;50.154;8.198;2022-08-04T08:05:52;2.10;;;2.00;;
20727;SDS011;10525;50.154;8.198;2022-08-04T08:08:19;2.53;;;2.38;;
20727;SDS011;10525;50.154;8.198;2022-08-04T08:10:46;2.60;;;2.50;;
20727;SDS011;10525;50.154;8.198;2022-08-04T08:13:13;2.72;;;2.40;;
20727;SDS011;10525;50.154;8.198;2022-08-04T08:15:42;3.33;;;3.00;;
20727;SDS011;10525;50.154;8.198;2022-08-04T08:18:10;2.67;;;2.20;;
20727;SDS011;10525;50.154;8.198;2022-08-04T08:20:38;2.88;;;2.10;;
20727;SDS011;10525;50.154;8.198;2022-08-04T08:23:05;1.95;;;1.92;;
20727;SDS011;10525;50.154;8.198;2022-08-04T08:25:33;2.30;;;2.30;;
20727;SDS011;10525;50.154;8.198;2022-08-04T08:28:01;4.28;;;2.28;;
20727;SDS011;10525;50.154;8.198;2022-08-04T08:30:29;2.20;;;2.20;;
20727;SDS011;10525;50.154;8.198;2022-08-04T08:32:57;2.35;;;2.30;;
20727;SDS011;10525;50.154;8.198;2022-08-04T08:35:31;2.05;;;2.05;;
20727;SDS011;10525;50.154;8.198;2022-08-04T08:38:03;2.63;;;2.53;;
20727;SDS011;10525;50.154;8.198;2022-08-04T08:40:32;2.30;;;2.10;;
20727;SDS011;10525;50.154;8.198;2022-08-04T08:43:11;2.05;;;1.95;;
20727;SDS011;10525;50.154;8.198;2022-08-04T08:46:07;3.97;;;1.95;;
20727;SDS011;10525;50.154;8.198;2022-08-04T08:48:58;2.20;;;2.20;;
20727;SDS011;10525;50.154;8.198;2022-08-04T08:54:31;1.90;;;1.90;;
20727;SDS011;10525;50.154;8.198;2022-08-04T08:57:19;2.38;;;2.28;;
20727;SDS011;10525;50.154;8.198;2022-08-04T09:00:00;3.90;;;2.17;;
20727;SDS011;10525;50.154;8.198;2022-08-04T09:05:39;2.65;;;2.28;;
20727;SDS011;10525;50.154;8.198;2022-08-04T09:08:20;2.30;;;2.28;;
20727;SDS011;10525;50.154;8.198;2022-08-04T09:10:57;2.30;;;2.10;;
20727;SDS011;10525;50.154;8.198;2022-08-04T09:13:29;2.45;;;2.35;;
20727;SDS011;10525;50.154;8.198;2022-08-04T09:16:01;2.40;;;2.30;;
20727;SDS011;10525;50.154;8.198;2022-08-04T09:18:35;2.80;;;2.55;;
20727;SDS011;10525;50.154;8.198;2022-08-04T09:21:12;2.47;;;2.00;;
20727;SDS011;10525;50.154;8.198;2022-08-04T09:23:50;2.00;;;2.00;;
20727;SDS011;10525;50.154;8.198;2022-08-04T09:26:28;2.35;;;2.25;;
20727;SDS011;10525;50.154;8.198;2022-08-04T09:29:06;2.25;;;2.15;;
20727;SDS011;10525;50.154;8.198;2022-08-04T09:31:41;2.38;;;2.03;;
20727;SDS011;10525;50.154;8.198;2022-08-04T09:34:16;2.65;;;1.90;;
20727;SDS011;10525;50.154;8.198;2022-08-04T09:36:55;4.57;;;2.17;;
20727;SDS011;10525;50.154;8.198;2022-08-04T09:39:31;2.50;;;2.40;;
20727;SDS011;10525;50.154;8.198;2022-08-04T09:42:09;4.88;;;2.30;;
20727;SDS011;10525;50.154;8.198;2022-08-04T09:44:47;4.95;;;2.35;;
20727;SDS011;10525;50.154;8.198;2022-08-04T09:47:23;2.95;;;2.15;;
20727;SDS011;10525;50.154;8.198;2022-08-04T09:49:57;2.05;;;1.95;;
20727;SDS011;10525;50.154;8.198;2022-08-04T09:52:36;2.15;;;2.05;;
20727;SDS011;10525;50.154;8.198;2022-08-04T09:55:11;3.08;;;2.28;;
20727;SDS011;10525;50.154;8.198;2022-08-04T09:57:47;2.05;;;2.00;;
20727;SDS011;10525;50.154;8.198;2022-08-04T10:00:20;4.38;;;2.13;;
20727;SDS011;10525;50.154;8.198;2022-08-04T10:02:50;2.25;;;2.15;;
20727;SDS011;10525;50.154;8.198;2022-08-04T10:05:20;5.53;;;2.42;;
20727;SDS011;10525;50.154;8.198;2022-08-04T10:07:53;3.28;;;2.38;;
20727;SDS011;10525;50.154;8.198;2022-08-04T10:10:32;2.30;;;2.20;;
20727;SDS011;10525;50.154;8.198;2022-08-04T10:13:08;3.90;;;2.03;;
20727;SDS011;10525;50.154;8.198;2022-08-04T10:15:49;2.67;;;2.10;;
20727;SDS011;10525;50.154;8.198;2022-08-04T10:18:27;3.60;;;2.08;;
20727;SDS011;10525;50.154;8.198;2022-08-04T10:21:07;4.28;;;2.00;;
20727;SDS011;10525;50.154;8.198;2022-08-04T10:23:47;3.60;;;1.90;;
20727;SDS011;10525;50.154;8.198;2022-08-04T10:26:25;2.83;;;2.15;;
20727;SDS011;10525;50.154;8.198;2022-08-04T10:28:59;3.90;;;2.58;;
20727;SDS011;10525;50.154;8.198;2022-08-04T10:31:31;2.88;;;1.92;;
20727;SDS011;10525;50.154;8.198;2022-08-04T10:34:00;4.28;;;2.03;;
20727;SDS011;10525;50.154;8.198;2022-08-04T10:36:43;3.47;;;1.85;;
20727;SDS011;10525;50.154;8.198;2022-08-04T10:39:15;2.60;;;2.40;;
20727;SDS011;10525;50.154;8.198;2022-08-04T10:41:46;2.13;;;2.03;;
20727;SDS011;10525;50.154;8.198;2022-08-04T10:44:21;2.63;;;2.40;;
20727;SDS011;10525;50.154;8.198;2022-08-04T10:46:57;5.05;;;2.35;;
20727;SDS011;10525;50.154;8.198;2022-08-04T10:49:32;2.28;;;2.00;;
20727;SDS011;10525;50.154;8.198;2022-08-04T10:52:02;2.97;;;2.33;;
20727;SDS011;10525;50.154;8.198;2022-08-04T10:54:36;8.27;;;1.95;;
20727;SDS011;10525;50.154;8.198;2022-08-04T10:57:11;2.30;;;2.00;;
20727;SDS011;10525;50.154;8.198;2022-08-04T10:59:46;2.50;;;2.10;;
20727;SDS011;10525;50.154;8.198;2022-08-04T11:02:23;4.13;;;2.00;;
20727;SDS011;10525;50.154;8.198;2022-08-04T11:04:58;2.63;;;1.67;;
20727;SDS011;10525;50.154;8.198;2022-08-04T11:07:36;1.58;;;1.50;;
20727;SDS011;10525;50.154;8.198;2022-08-04T11:10:06;4.25;;;2.30;;
20727;SDS011;10525;50.154;8.198;2022-08-04T11:12:34;2.25;;;1.70;;
20727;SDS011;10525;50.154;8.198;2022-08-04T11:15:05;1.88;;;1.77;;
20727;SDS011;10525;50.154;8.198;2022-08-04T11:17:37;1.90;;;1.70;;
20727;SDS011;10525;50.154;8.198;2022-08-04T11:20:10;1.70;;;1.70;;
20727;SDS011;10525;50.154;8.198;2022-08-04T11:22:43;1.70;;;1.70;;
20727;SDS011;10525;50.154;8.198;2022-08-04T11:25:13;2.10;;;1.65;;
20727;SDS011;10525;50.154;8.198;2022-08-04T11:27:54;1.77;;;1.77;;
20727;SDS011;10525;50.154;8.198;2022-08-04T11:30:31;2.83;;;1.67;;
20727;SDS011;10525;50.154;8.198;2022-08-04T11:33:04;1.60;;;1.60;;
20727;SDS011;10525;50.154;8.198;2022-08-04T11:35:37;4.55;;;1.55;;
20727;SDS011;10525;50.154;8.198;2022-08-04T11:38:16;5.63;;;1.70;;
20727;SDS011;10525;50.154;8.198;2022-08-04T11:40:49;6.47;;;1.40;;
20727;SDS011;10525;50.154;8.198;2022-08-04T11:43:23;1.70;;;1.70;;
20727;SDS011;10525;50.154;8.198;2022-08-04T11:46:00;1.80;;;1.67;;
20727;SDS011;10525;50.154;8.198;2022-08-04T11:48:32;2.17;;;1.63;;
20727;SDS011;10525;50.154;8.198;2022-08-04T11:51:02;1.88;;;1.48;;
20727;SDS011;10525;50.154;8.198;2022-08-04T11:53:30;1.60;;;1.60;;
20727;SDS011;10525;50.154;8.198;2022-08-04T11:56:00;1.20;;;1.20;;
20727;SDS011;10525;50.154;8.198;2022-08-04T11:58:29;1.75;;;1.40;;
20727;SDS011;10525;50.154;8.198;2022-08-04T12:00:57;1.20;;;1.10;;
20727;SDS011;10525;50.154;8.198;2022-08-04T12:03:35;1.23;;;1.23;;
20727;SDS011;10525;50.154;8.198;2022-08-04T12:06:12;1.35;;;1.33;;
20727;SDS011;10525;50.154;8.198;2022-08-04T12:08:50;1.45;;;1.33;;
20727;SDS011;10525;50.154;8.198;2022-08-04T12:11:27;1.35;;;1.33;;
20727;SDS011;10525;50.154;8.198;2022-08-04T12:14:09;1.88;;;1.25;;
20727;SDS011;10525;50.154;8.198;2022-08-04T12:16:47;1.52;;;1.30;;
20727;SDS011;10525;50.154;8.198;2022-08-04T12:19:20;3.90;;;1.10;;
20727;SDS011;10525;50.154;8.198;2022-08-04T12:21:52;1.60;;;1.60;;
20727;SDS011;10525;50.154;8.198;2022-08-04T12:24:25;1.38;;;1.20;;
20727;SDS011;10525;50.154;8.198;2022-08-04T12:26:57;1.23;;;1.23;;
20727;SDS011;10525;50.154;8.198;2022-08-04T12:29:30;1.40;;;1.40;;
20727;SDS011;10525;50.154;8.198;2022-08-04T12:32:03;1.55;;;1.50;;
20727;SDS011;10525;50.154;8.198;2022-08-04T12:34:38;3.88;;;1.45;;
20727;SDS011;10525;50.154;8.198;2022-08-04T12:37:16;4.88;;;1.20;;
20727;SDS011;10525;50.154;8.198;2022-08-04T12:39:49;1.75;;;1.30;;
20727;SDS011;10525;50.154;8.198;2022-08-04T12:42:21;1.35;;;1.35;;
20727;SDS011;10525;50.154;8.198;2022-08-04T12:44:51;2.40;;;1.48;;
20727;SDS011;10525;50.154;8.198;2022-08-04T12:47:23;1.48;;;1.38;;
20727;SDS011;10525;50.154;8.198;2022-08-04T12:49:52;1.63;;;1.55;;
20727;SDS011;10525;50.154;8.198;2022-08-04T12:52:20;3.38;;;1.50;;
20727;SDS011;10525;50.154;8.198;2022-08-04T12:54:51;1.20;;;1.20;;
20727;SDS011;10525;50.154;8.198;2022-08-04T12:57:19;1.20;;;1.20;;
20727;SDS011;10525;50.154;8.198;2022-08-04T12:59:48;1.88;;;1.70;;
20727;SDS011;10525;50.154;8.198;2022-08-04T13:02:15;1.30;;;1.30;;
20727;SDS011;10525;50.154;8.198;2022-08-04T13:04:50;1.45;;;1.45;;
20727;SDS011;10525;50.154;8.198;2022-08-04T13:07:19;1.55;;;1.48;;
20727;SDS011;10525;50.154;8.198;2022-08-04T13:09:49;1.50;;;1.50;;
20727;SDS011;10525;50.154;8.198;2022-08-04T13:12:18;3.03;;;1.70;;
20727;SDS011;10525;50.154;8.198;2022-08-04T13:14:47;1.58;;;1.48;;
20727;SDS011;10525;50.154;8.198;2022-08-04T13:17:16;2.47;;;1.50;;
20727;SDS011;10525;50.154;8.198;2022-08-04T13:19:45;1.63;;;1.63;;
20727;SDS011;10525;50.154;8.198;2022-08-04T13:22:14;1.67;;;1.50;;
20727;SDS011;10525;50.154;8.198;2022-08-04T13:24:49;1.75;;;1.65;;
20727;SDS011;10525;50.154;8.198;2022-08-04T13:27:16;10.77;;;1.80;;
20727;SDS011;10525;50.154;8.198;2022-08-04T13:29:45;1.55;;;1.52;;
20727;SDS011;10525;50.154;8.198;2022-08-04T13:32:17;1.50;;;1.50;;
20727;SDS011;10525;50.154;8.198;2022-08-04T13:34:46;1.63;;;1.63;;
20727;SDS011;10525;50.154;8.198;2022-08-04T13:37:16;1.70;;;1.60;;
20727;SDS011;10525;50.154;8.198;2022-08-04T13:39:44;1.77;;;1.77;;
20727;SDS011;10525;50.154;8.198;2022-08-04T13:42:12;1.40;;;1.40;;
20727;SDS011;10525;50.154;8.198;2022-08-04T13:44:42;1.65;;;1.65;;
20727;SDS011;10525;50.154;8.198;2022-08-04T13:47:13;2.10;;;1.67;;
20727;SDS011;10525;50.154;8.198;2022-08-04T13:52:34;3.13;;;1.70;;
20727;SDS011;10525;50.154;8.198;2022-08-04T13:55:01;2.15;;;1.50;;
20727;SDS011;10525;50.154;8.198;2022-08-04T13:57:28;1.75;;;1.75;;
20727;SDS011;10525;50.154;8.198;2022-08-04T14:00:03;1.65;;;1.65;;
20727;SDS011;10525;50.154;8.198;2022-08-04T14:02:33;4.05;;;1.92;;
20727;SDS011;10525;50.154;8.198;2022-08-04T14:05:07;2.58;;;1.77;;
20727;SDS011;10525;50.154;8.198;2022-08-04T14:07:42;1.60;;;1.60;;
20727;SDS011;10525;50.154;8.198;2022-08-04T14:10:12;1.65;;;1.65;;
20727;SDS011;10525;50.154;8.198;2022-08-04T14:12:43;2.38;;;1.70;;
20727;SDS011;10525;50.154;8.198;2022-08-04T14:18:01;1.85;;;1.75;;
20727;SDS011;10525;50.154;8.198;2022-08-04T14:20:56;3.05;;;1.80;;
20727;SDS011;10525;50.154;8.198;2022-08-04T14:23:25;1.55;;;1.55;;
20727;SDS011;10525;50.154;8.198;2022-08-04T14:25:52;1.70;;;1.63;;
20727;SDS011;10525;50.154;8.198;2022-08-04T14:28:25;1.70;;;1.70;;
20727;SDS011;10525;50.154;8.198;2022-08-04T14:31:03;1.73;;;1.73;;
20727;SDS011;10525;50.154;8.198;2022-08-04T14:33:37;3.58;;;1.90;;
20727;SDS011;10525;50.154;8.198;2022-08-04T14:36:05;1.60;;;1.60;;
20727;SDS011;10525;50.154;8.198;2022-08-04T14:38:50;2.05;;;1.50;;
20727;SDS011;10525;50.154;8.198;2022-08-04T14:41:19;1.83;;;1.73;;
20727;SDS011;10525;50.154;8.198;2022-08-04T14:43:49;1.95;;;1.85;;
20727;SDS011;10525;50.154;8.198;2022-08-04T14:46:18;1.77;;;1.52;;
20727;SDS011;10525;50.154;8.198;2022-08-04T14:49:01;1.65;;;1.65;;
20727;SDS011;10525;50.154;8.198;2022-08-04T14:51:33;1.60;;;1.60;;
20727;SDS011;10525;50.154;8.198;2022-08-04T14:54:03;1.67;;;1.67;;
20727;SDS011;10525;50.154;8.198;2022-08-04T14:56:30;3.83;;;1.55;;
20727;SDS011;10525;50.154;8.198;2022-08-04T14:58:58;1.60;;;1.60;;
20727;SDS011;10525;50.154;8.198;2022-08-04T15:01:26;1.30;;;1.30;;
20727;SDS011;10525;50.154;8.198;2022-08-04T15:03:53;2.15;;;1.73;;
20727;SDS011;10525;50.154;8.198;2022-08-04T15:06:21;3.03;;;1.50;;
20727;SDS011;10525;50.154;8.198;2022-08-04T15:08:50;2.45;;;1.75;;
20727;SDS011;10525;50.154;8.198;2022-08-04T15:11:19;2.70;;;1.70;;
20727;SDS011;10525;50.154;8.198;2022-08-04T15:13:46;2.25;;;1.55;;
20727;SDS011;10525;50.154;8.198;2022-08-04T15:16:13;2.28;;;1.63;;
20727;SDS011;10525;50.154;8.198;2022-08-04T15:18:40;1.63;;;1.60;;
20727;SDS011;10525;50.154;8.198;2022-08-04T15:21:07;2.85;;;1.52;;
20727;SDS011;10525;50.154;8.198;2022-08-04T15:23:35;1.55;;;1.55;;
20727;SDS011;10525;50.154;8.198;2022-08-04T15:26:02;3.50;;;1.35;;
20727;SDS011;10525;50.154;8.198;2022-08-04T15:28:32;2.10;;;1.10;;
20727;SDS011;10525;50.154;8.198;2022-08-04T15:31:02;2.22;;;1.38;;
20727;SDS011;10525;50.154;8.198;2022-08-04T15:33:30;6.13;;;2.40;;
20727;SDS011;10525;50.154;8.198;2022-08-04T15:36:08;2.50;;;1.73;;
20727;SDS011;10525;50.154;8.198;2022-08-04T15:38:39;2.05;;;1.60;;
20727;SDS011;10525;50.154;8.198;2022-08-04T15:41:15;1.80;;;1.48;;
20727;SDS011;10525;50.154;8.198;2022-08-04T15:43:52;1.77;;;1.35;;
20727;SDS011;10525;50.154;8.198;2022-08-04T15:47:08;1.40;;;1.40;;
20727;SDS011;10525;50.154;8.198;2022-08-04T15:49:37;2.40;;;1.50;;
20727;SDS011;10525;50.154;8.198;2022-08-04T15:52:05;9.77;;;1.90;;
20727;SDS011;10525;50.154;8.198;2022-08-04T15:54:33;1.50;;;1.50;;
20727;SDS011;10525;50.154;8.198;2022-08-04T15:57:00;1.88;;;1.73;;
20727;SDS011;10525;50.154;8.198;2022-08-04T16:02:29;4.03;;;1.70;;
20727;SDS011;10525;50.154;8.198;2022-08-04T16:08:07;1.67;;;1.50;;
20727;SDS011;10525;50.154;8.198;2022-08-04T16:10:44;1.60;;;1.50;;
20727;SDS011;10525;50.154;8.198;2022-08-04T16:13:13;2.38;;;1.52;;